Flight Track Log - Related Links

Times and Time Zones

All times are in EDT time to prevent confusion due to time zone crossing. See the EJA929 flight status page for this flight to view local times or setup timezone preferences in your user account.

Time Position Orientation Groundspeed Altitude Reporting Facility
EDT Latitude Longitude Course Direction KTS MPH feet Rate Location/Type
Sun 02:00:39 PM 41.2925 -95.8867 207° Southwest 175 201 1,700  Level Minneapolis Center
Sun 02:02:12 PM 41.2211 -95.9356 207° Southwest 239 275 6,200 2,903 Climbing Minneapolis Center
Sun 02:03:14 PM 41.1703 -96.0031 225° Southwest 249 287 9,200 2,323 Climbing Minneapolis Center
Sun 02:04:16 PM 41.1397 -96.0989 247° West 274 315 11,000 1,645 Climbing Minneapolis Center
Sun 02:05:18 PM 41.1031 -96.2094 246° West 313 360 12,600 1,645 Climbing Minneapolis Center
Sun 02:06:20 PM 41.0578 -96.3458 246° West 330 380 14,400 1,500 Climbing Minneapolis Center
Sun 02:07:22 PM 41.0175 -96.4647 246° West 346 398 15,700 1,161 Climbing Minneapolis Center
Sun 02:08:24 PM 40.9756 -96.5894 246° West 363 418 16,800 1,258 Climbing Minneapolis Center
Sun 02:09:26 PM 40.9328 -96.7153 246° West 369 425 18,300 1,306 Climbing Minneapolis Center
Sun 02:10:28 PM 40.8942 -96.8461 249° West 378 435 19,500 1,306 Climbing Minneapolis Center
Sun 02:11:30 PM 40.8597 -96.9814 251° West 384 442 21,000 1,306 Climbing Minneapolis Center
Sun 02:12:32 PM 40.8222 -97.1172 250° West 390 449 22,200 1,210 Climbing Minneapolis Center
Sun 02:13:34 PM 40.7764 -97.2833 250° West 399 459 23,500 1,161 Climbing Minneapolis Center
Sun 02:14:36 PM 40.7431 -97.4069 250° West 407 468 24,600 1,258 Climbing Minneapolis Center
Sun 02:15:38 PM 40.6947 -97.5786 250° West 412 474 26,100 1,258 Climbing Minneapolis Center
Sun 02:16:40 PM 40.6544 -97.7261 250° West 421 484 27,200 1,161 Climbing Minneapolis Center
Sun 02:17:42 PM 40.6122 -97.8742 249° West 425 489 28,500 1,258 Climbing Minneapolis Center
Sun 02:18:44 PM 40.5703 -98.0231 250° West 428 493 29,800 1,161 Climbing Minneapolis Center
Sun 02:19:46 PM 40.5281 -98.1750 250° West 435 501 30,900 1,548 Climbing Minneapolis Center
Sun 02:20:48 PM 40.4850 -98.3275 250° West 441 507 33,000 1,935 Climbing Minneapolis Center
Sun 02:21:50 PM 40.4419 -98.4750 249° West 437 503 34,900 2,226 Climbing Minneapolis Center
Sun 02:22:52 PM 40.3919 -98.6483 249° West 426 490 37,600 2,419 Climbing Minneapolis Center
Sun 02:23:54 PM 40.3522 -98.7892 250° West 417 480 39,900 1,161 Climbing Minneapolis Center
Sun 02:24:56 PM 40.3114 -98.9272 249° West 410 472 40,000 48 Climbing Minneapolis Center
Sun 02:25:58 PM 40.2669 -99.0786 249° West 430 495 40,000  Level Minneapolis Center
Sun 02:26:59 PM 40.2211 -99.2347 249° West 450 518 40,000  Level Minneapolis Center
Sun 02:28:01 PM 40.1753 -99.3925 249° West 456 525 40,000  Level Minneapolis Center
Sun 02:29:03 PM 40.1283 -99.5486 249° West 457 526 40,000  Level Minneapolis Center
Sun 02:30:05 PM 40.0817 -99.7056 249° West 459 528 40,000  Level Minneapolis Center
Sun 02:31:07 PM 40.0244 -99.8939 248° West 462 532 40,000  Level Minneapolis Center
Sun 02:32:09 PM 39.9769 -100.0506 248° West 462 532 40,000 97 Level Minneapolis Center
Sun 02:33:11 PM 39.9292 -100.2089 249° West 463 533 40,200 581 Climbing Minneapolis Center
Sun 02:34:13 PM 39.8828 -100.3608 248° West 461 531 41,200 1,000 Climbing Minneapolis Center
Sun 02:35:35 PM 39.8172 -100.5697 248° West 447 514 42,600 750 Climbing Denver Center
Sun 02:36:37 PM 39.7728 -100.7131 248° West 446 513 43,000 194 Climbing Denver Center
Sun 02:37:39 PM 39.7203 -100.8811 248° West 447 514 43,000  Level Denver Center
Sun 02:38:41 PM 39.6744 -101.0297 248° West 455 524 43,000  Level Denver Center
Sun 02:39:43 PM 39.6186 -101.2028 247° West 463 533 43,000  Level Denver Center
Sun 02:40:45 PM 39.5717 -101.3522 248° West 465 535 43,000  Level Denver Center
Sun 02:41:47 PM 39.5150 -101.5297 248° West 472 543 43,000  Level Denver Center
Sun 02:42:49 PM 39.4667 -101.6789 247° West 472 543 43,000  Level Denver Center
Sun 02:43:51 PM 39.4178 -101.8283 247° West 470 541 43,000  Level Denver Center
Sun 02:44:53 PM 39.3619 -101.9997 247° West 468 539 43,000  Level Denver Center
Sun 02:45:55 PM 39.3117 -102.1558 247° West 465 535 43,000  Level Denver Center
Sun 02:46:57 PM 39.2556 -102.3264 247° West 466 536 43,000  Level Denver Center
Sun 02:47:59 PM 39.2064 -102.4714 246° West 465 535 43,000  Level Denver Center
Sun 02:49:01 PM 39.1503 -102.6422 247° West 465 535 43,000  Level Denver Center
Sun 02:50:03 PM 39.1053 -102.7731 246° West 465 535 43,000  Level Denver Center
Sun 02:51:05 PM 39.0458 -102.9539 247° West 459 528 43,000  Level Denver Center
Sun 02:52:07 PM 38.9942 -103.1033 246° West 458 527 43,000  Level Denver Center
Sun 02:53:09 PM 38.9436 -103.2542 247° West 458 527 43,000  Level Denver Center
Sun 02:54:12 PM 38.8928 -103.4022 246° West 457 526 43,000  Level Denver Center
Sun 02:55:14 PM 38.8375 -103.5636 246° West 452 520 43,000  Level Denver Center
Sun 02:56:16 PM 38.7808 -103.7069 243° Southwest 451 519 43,000  Level Denver Center
Sun 02:57:18 PM 38.7192 -103.8478 241° Southwest 452 520 43,000  Level Denver Center
Sun 02:58:20 PM 38.6581 -103.9883 241° Southwest 453 521 43,000  Level Denver Center
Sun 02:59:22 PM 38.5892 -104.1475 241° Southwest 453 521 43,000  Level Denver Center
Sun 03:00:24 PM 38.5278 -104.2886 241° Southwest 454 522 43,000  Level Denver Center
Sun 03:01:26 PM 38.4658 -104.4269 240° Southwest 453 521 43,000  Level Denver Center
Sun 03:02:28 PM 38.4044 -104.5658 241° Southwest 450 518 43,000  Level Denver Center
Sun 03:03:30 PM 38.3422 -104.7053 240° Southwest 450 518 43,000  Level Denver Center
Sun 03:04:32 PM 38.2794 -104.8464 240° Southwest 449 517 43,000  Level Denver Center
Sun 03:05:34 PM 38.2056 -105.0114 240° Southwest 447 514 43,000  Level Denver Center
Sun 03:06:36 PM 38.1428 -105.1503 240° Southwest 454 522 43,000  Level Denver Center
Sun 03:07:38 PM 38.0789 -105.2903 240° Southwest 455 524 43,000  Level Denver Center
Sun 03:08:40 PM 38.0164 -105.4292 240° Southwest 458 527 43,000  Level Denver Center
Sun 03:09:42 PM 37.9517 -105.5692 240° Southwest 458 527 43,000  Level Denver Center
Sun 03:10:44 PM 37.8744 -105.7361 240° Southwest 461 531 43,000  Level Denver Center
Sun 03:11:46 PM 37.8122 -105.8717 240° Southwest 454 522 43,000  Level Denver Center
Sun 03:12:49 PM 37.7497 -106.0078 240° Southwest 452 520 43,000  Level Denver Center
Sun 03:13:51 PM 37.6942 -106.1489 244° Southwest 451 519 43,000  Level Denver Center
Sun 03:14:53 PM 37.6494 -106.2958 249° West 451 519 43,000  Level Denver Center
Sun 03:15:55 PM 37.5992 -106.4644 249° West 456 525 43,000  Level Denver Center
Sun 03:16:57 PM 37.5547 -106.6078 249° West 457 526 43,000  Level Denver Center
Sun 03:17:59 PM 37.5039 -106.7714 249° West 455 524 43,000  Level Denver Center
Sun 03:19:01 PM 37.4606 -106.9119 249° West 451 519 43,000  Level Denver Center
Sun 03:20:03 PM 37.4083 -107.0761 248° West 452 520 43,000  Level Denver Center
Sun 03:21:05 PM 37.3636 -107.2203 249° West 459 528 43,000  Level Denver Center
Sun 03:22:07 PM 37.3111 -107.3864 248° West 459 528 43,000  Level Denver Center
Sun 03:23:09 PM 37.2642 -107.5294 248° West 459 528 43,000  Level Denver Center
Sun 03:24:11 PM 37.2106 -107.6983 248° West 463 533 43,000  Level Denver Center
Sun 03:25:13 PM 37.1644 -107.8411 248° West 463 533 43,000  Level Denver Center
Sun 03:26:15 PM 37.1097 -108.0103 248° West 466 536 43,000  Level Denver Center
Sun 03:27:17 PM 37.0622 -108.1556 248° West 467 537 43,000  Level Denver Center
Sun 03:28:19 PM 37.0064 -108.3247 248° West 470 541 43,000  Level Denver Center
Sun 03:29:21 PM 36.9592 -108.4689 248° West 470 541 43,000  Level Denver Center
Sun 03:30:23 PM 36.9039 -108.6344 247° West 468 539 43,000  Level Denver Center
Sun 03:31:25 PM 36.8567 -108.7781 248° West 468 539 43,000  Level Denver Center
Sun 03:32:28 PM 36.8008 -108.9431 247° West 467 537 43,000  Level Denver Center
Sun 03:33:30 PM 36.7542 -109.0842 248° West 466 536 43,000  Level Denver Center
Sun 03:34:32 PM 36.6989 -109.2467 247° West 461 531 43,000  Level Denver Center
Sun 03:35:34 PM 36.6517 -109.3853 247° West 459 528 43,000  Level Denver Center
Sun 03:36:36 PM 36.5956 -109.5486 247° West 459 528 43,000  Level Denver Center
Sun 03:37:38 PM 36.5483 -109.6864 247° West 459 528 43,000  Level Denver Center
Sun 03:38:40 PM 36.4933 -109.8475 247° West 455 524 43,000  Level Denver Center
Sun 03:39:42 PM 36.4444 -109.9861 246° West 456 525 43,000  Level Denver Center
Sun 03:40:44 PM 36.3886 -110.1475 247° West 456 525 43,000  Level Denver Center
Sun 03:41:46 PM 36.3447 -110.2731 247° West 457 526 43,000  Level Denver Center
Sun 03:42:48 PM 36.2828 -110.4481 246° West 463 533 43,000  Level Denver Center
Sun 03:43:51 PM 36.2308 -110.5939 246° West 462 532 43,000  Level Denver Center
Sun 03:44:53 PM 36.1786 -110.7389 246° West 462 532 43,000  Level Denver Center
Sun 03:45:55 PM 36.1247 -110.8872 246° West 467 537 43,000  Level Denver Center
Sun 03:46:57 PM 36.0728 -111.0347 246° West 467 537 43,000  Level Denver Center
Sun 03:47:59 PM 36.0183 -111.1836 246° West 469 540 43,000  Level Denver Center
Sun 03:49:01 PM 35.9536 -111.3625 246° West 474 545 43,000  Level Denver Center
Sun 03:50:03 PM 35.8989 -111.5131 246° West 476 548 43,000  Level Denver Center
Sun 03:51:01 PM 35.8447 -111.6600 246° West 481 554 43,000  Level Los Angeles Center
Sun 03:52:04 PM 35.7894 -111.8108 246° West 482 555 43,000  Level Los Angeles Center
Sun 03:53:06 PM 35.7342 -111.9606 246° West 482 555 43,000  Level Los Angeles Center
Sun 03:54:08 PM 35.6797 -112.1092 246° West 480 552 43,000  Level Los Angeles Center
Sun 03:55:10 PM 35.6228 -112.2597 245° Southwest 483 556 43,000  Level Los Angeles Center
Sun 03:56:12 PM 35.5550 -112.4411 245° Southwest 485 558 43,000  Level Los Angeles Center
Sun 03:57:14 PM 35.4989 -112.5900 245° Southwest 485 558 43,000  Level Los Angeles Center
Sun 03:58:17 PM 35.4389 -112.7486 245° Southwest 485 558 43,000  Level Los Angeles Center
Sun 03:59:19 PM 35.3817 -112.8981 245° Southwest 485 558 43,000  Level Los Angeles Center
Sun 04:00:21 PM 35.3231 -113.0486 245° Southwest 485 558 43,000 -629 Level Los Angeles Center
Sun 04:01:23 PM 35.2675 -113.1975 245° Southwest 480 552 41,700 -1,645 Descending Los Angeles Center
Sun 04:02:25 PM 35.2114 -113.3408 244° Southwest 463 533 39,600 -1,984 Descending Los Angeles Center
Sun 04:03:27 PM 35.1567 -113.4847 245° Southwest 462 532 37,600 -1,984 Descending Los Angeles Center
Sun 04:04:29 PM 35.0983 -113.6350 245° Southwest 484 557 35,500 -2,736 Descending Los Angeles Center
Sun 04:05:32 PM 35.0289 -113.8169 245° Southwest 489 563 31,900 -2,304 Descending Los Angeles Center
Sun 04:06:34 PM 34.9672 -113.9689 244° Southwest 500 575 30,700 -919 Descending Los Angeles Center
Sun 04:07:36 PM 34.9053 -114.1236 244° Southwest 503 579 30,000 -339 Descending Los Angeles Center
Sun 04:08:38 PM 34.8436 -114.2772 244° Southwest 505 581 30,000  Level Los Angeles Center
Sun 04:09:40 PM 34.7833 -114.4303 244° Southwest 505 581 30,000  Level Los Angeles Center
Sun 04:10:42 PM 34.6853 -114.5961 234° Southwest 504 580 30,000  Level Los Angeles Center
Sun 04:11:45 PM 34.6014 -114.7233 231° Southwest 506 582 30,000 -48 Level Los Angeles Center
Sun 04:12:47 PM 34.5139 -114.8547 231° Southwest 504 580 29,900 -1,016 Descending Los Angeles Center
Sun 04:13:49 PM 34.4264 -114.9872 231° Southwest 505 581 27,900 -2,032 Descending Los Angeles Center
Sun 04:14:51 PM 34.3383 -115.1169 231° Southwest 503 579 25,700 -2,371 Descending Los Angeles Center
Sun 04:15:53 PM 34.2381 -115.2664 231° Southwest 482 555 23,000 -1,839 Descending Los Angeles Center
Sun 04:16:55 PM 34.1572 -115.3844 230° Southwest 460 529 21,900 -480 Descending Los Angeles Center
Sun 04:17:58 PM 34.0803 -115.5006 231° Southwest 451 519 22,000 -240 Climbing Los Angeles Center
Sun 04:19:00 PM 34.0019 -115.6142 230° Southwest 445 512 21,400 -726 Descending Los Angeles Center
Sun 04:20:02 PM 33.9236 -115.7303 231° Southwest 444 511 20,500 -1,161 Descending Los Angeles Center
Sun 04:21:04 PM 33.8303 -115.8664 230° Southwest 445 512 19,000 -1,355 Descending Los Angeles Center
Sun 04:22:06 PM 33.7542 -115.9769 230° Southwest 437 503 17,700 -1,113 Descending Los Angeles Center
Sun 04:23:08 PM 33.6819 -116.0825 231° Southwest 417 480 16,700 -871 Descending Los Angeles Center
Sun 04:24:10 PM 33.6142 -116.1883 232° Southwest 407 468 15,900 -384 Descending Los Angeles Center
Sun 04:25:13 PM 33.5553 -116.3033 238° Southwest 403 464 15,900 -1,008 Level Los Angeles Center
Sun 04:26:15 PM 33.4867 -116.4419 239° Southwest 404 465 13,800 -2,177 Descending Los Angeles Center
Sun 04:27:17 PM 33.4303 -116.5536 239° Southwest 403 464 11,400 -1,887 Descending Los Angeles Center
Sun 04:28:19 PM 33.3825 -116.6506 239° Southwest 372 428 9,900 -1,258 Descending Los Angeles Center
Sun 04:29:21 PM 33.3428 -116.7281 238° Southwest 319 367 8,800 -968 Descending Los Angeles Center
Sun 04:30:23 PM 33.3053 -116.8011 238° Southwest 285 328 7,900 -720 Descending Los Angeles Center
Sun 04:31:26 PM 33.2653 -116.8786 238° Southwest 246 283 7,300 -387 Descending Los Angeles Center
Sun 04:31:56 PM 33.2500 -116.9167 244° Southwest 224 258 7,300 -706 Level Southern California TRACON
Sun 04:32:51 PM 33.2167 -116.9667 231° Southwest 221 254 6,300 -939 Descending Southern California TRACON
Sun 04:33:51 PM 33.1833 -117.0167 231° Southwest 194 223 5,500 -645 Descending Southern California TRACON
Sun 04:34:52 PM 33.1667 -117.0667 248° West 189 217 5,000 -1,041 Descending Southern California TRACON
Sun 04:35:52 PM 33.1500 -117.1333 253° West 161 185 3,400 -1,500 Descending Southern California TRACON
Sun 04:36:52 PM 33.1500 -117.1833 270° West 142 163 2,000 -1,000 Descending Southern California TRACON
Sun 04:37:58 PM 33.1333 -117.2167 239° Southwest 123 142 1,300 -667 Descending Southern California TRACON
Sun 04:38:58 PM 33.1333 -117.2667 270° West 128 147 600 -700 Descending Southern California TRACON
Sun 04:40:00 PM 33.1167 -117.2667 257° West  Level FlightAware Approximate
Sun 04:47:00 PM 33.1283 -117.2801 257° West  Level Estimated

Login

Don't have an account? Register now (free) for customized features, flight alerts, and more!